createdAt,value
2019-05-07T00:01:43.494Z,57.10
2019-05-07T00:04:10.174Z,57.40
2019-05-07T00:06:37.112Z,56.70
2019-05-07T00:09:08.491Z,56.60
2019-05-07T00:11:35.325Z,56.40
2019-05-07T00:14:03.161Z,55.20
2019-05-07T00:16:32.405Z,55.60
2019-05-07T00:18:59.045Z,55.50
2019-05-07T00:21:25.893Z,55.40
2019-05-07T00:23:53.080Z,56.40
2019-05-07T00:26:22.419Z,55.90
2019-05-07T00:28:48.981Z,56.20
2019-05-07T00:31:15.783Z,56.30
2019-05-07T00:33:43.420Z,56.80
2019-05-07T00:36:22.959Z,60.20
2019-05-07T00:38:52.075Z,67.80
2019-05-07T00:41:31.879Z,69.50
2019-05-07T00:43:59.870Z,68.90
2019-05-07T00:46:27.945Z,67.50
2019-05-07T00:48:54.540Z,66.60
2019-05-07T00:51:23.107Z,67.00
2019-05-07T00:53:51.931Z,67.30
2019-05-07T00:56:19.277Z,67.30
2019-05-07T00:58:46.064Z,67.20
2019-05-07T01:01:13.156Z,68.00
2019-05-07T01:03:42.292Z,69.00
2019-05-07T01:06:08.957Z,68.50
2019-05-07T01:08:36.020Z,68.50
2019-05-07T01:11:03.103Z,70.10
2019-05-07T01:13:32.221Z,71.50
2019-05-07T01:15:59.014Z,72.70
2019-05-07T01:18:26.017Z,73.40
2019-05-07T01:20:53.452Z,73.30
2019-05-07T01:23:22.674Z,73.50
2019-05-07T01:25:49.475Z,72.70
2019-05-07T01:28:16.472Z,72.90
2019-05-07T01:30:43.359Z,73.00
2019-05-07T01:33:28.798Z,72.90
2019-05-07T01:36:07.522Z,72.30
2019-05-07T01:38:34.762Z,70.00
2019-05-07T01:41:02.853Z,69.40
2019-05-07T01:43:32.096Z,68.90
2019-05-07T01:45:59.305Z,68.90
2019-05-07T01:48:26.532Z,68.80
2019-05-07T01:50:53.492Z,65.80
2019-05-07T01:53:22.589Z,67.20
2019-05-07T01:55:49.313Z,67.60
2019-05-07T01:58:16.153Z,67.40
2019-05-07T02:00:43.345Z,67.00
2019-05-07T02:03:25.100Z,67.10
2019-05-07T02:05:53.851Z,66.40
2019-05-07T02:08:37.708Z,66.70
2019-05-07T02:11:06.322Z,65.00
2019-05-07T02:13:33.893Z,65.20
2019-05-07T02:16:04.072Z,65.40
2019-05-07T02:18:32.445Z,64.50
2019-05-07T02:21:00.288Z,63.50
2019-05-07T02:23:27.611Z,63.60
2019-05-07T02:25:54.417Z,62.90
2019-05-07T02:28:22.363Z,62.40
2019-05-07T02:30:49.529Z,62.00
2019-05-07T02:33:16.498Z,61.60
2019-05-07T02:35:44.008Z,61.10
2019-05-07T02:38:15.742Z,60.30
2019-05-07T02:40:44.539Z,59.70
2019-05-07T02:43:14.102Z,59.90
2019-05-07T02:45:47.903Z,60.20
2019-05-07T02:48:16.843Z,60.20
2019-05-07T02:50:45.448Z,60.30
2019-05-07T02:53:18.040Z,60.20
2019-05-07T02:55:48.641Z,60.00
2019-05-07T02:58:15.593Z,60.30
2019-05-07T03:00:43.424Z,60.60
2019-05-07T03:03:13.510Z,61.00
2019-05-07T03:05:39.481Z,60.70
2019-05-07T03:08:08.321Z,61.30
2019-05-07T03:10:35.343Z,61.00
2019-05-07T03:13:03.333Z,60.80
2019-05-07T03:15:33.215Z,61.40
2019-05-07T03:18:03.360Z,61.30
2019-05-07T03:20:34.185Z,61.60
2019-05-07T03:23:03.143Z,61.60
2019-05-07T03:25:33.820Z,62.30
2019-05-07T03:28:04.143Z,62.10
2019-05-07T03:30:36.517Z,61.50
2019-05-07T03:33:07.313Z,61.20
2019-05-07T03:35:37.706Z,61.20
2019-05-07T03:38:05.081Z,61.60
2019-05-07T03:40:33.460Z,66.20
2019-05-07T03:43:02.930Z,68.40
2019-05-07T03:45:36.833Z,69.90
2019-05-07T03:48:05.773Z,70.60
2019-05-07T03:50:33.783Z,70.20
2019-05-07T03:53:02.772Z,69.10
2019-05-07T03:55:29.526Z,66.30
2019-05-07T03:57:56.332Z,64.90
2019-05-07T04:00:23.912Z,63.70
2019-05-07T04:02:52.709Z,63.40
2019-05-07T04:05:22.943Z,63.30
2019-05-07T04:07:49.070Z,63.40
2019-05-07T04:10:15.877Z,63.30
2019-05-07T04:12:44.312Z,64.20
2019-05-07T04:15:14.531Z,64.90
2019-05-07T04:17:42.966Z,66.40
2019-05-07T04:20:13.266Z,66.90
2019-05-07T04:22:39.167Z,66.90
2019-05-07T04:25:08.502Z,66.20
2019-05-07T04:27:44.121Z,65.60
2019-05-07T04:30:08.960Z,65.00
2019-05-07T04:32:55.638Z,64.50
2019-05-07T04:35:28.704Z,64.40
2019-05-07T04:37:55.374Z,63.70
2019-05-07T04:40:23.975Z,63.30
2019-05-07T04:42:53.579Z,62.80
2019-05-07T04:45:19.416Z,62.60
2019-05-07T04:47:47.705Z,62.60
2019-05-07T04:50:34.693Z,63.60
2019-05-07T04:52:46.210Z,63.20
2019-05-07T04:55:13.993Z,63.10
2019-05-07T04:57:43.528Z,63.90
2019-05-07T05:00:13.164Z,63.90
2019-05-07T05:02:46.763Z,64.60
2019-05-07T05:05:15.045Z,64.60
2019-05-07T05:07:43.062Z,64.40
2019-05-07T05:10:10.253Z,70.70
2019-05-07T05:12:37.036Z,67.00
2019-05-07T05:15:05.166Z,69.30
2019-05-07T05:17:32.151Z,68.80
2019-05-07T05:20:02.970Z,68.40
2019-05-07T05:22:46.112Z,67.50
2019-05-07T05:25:33.273Z,67.00
2019-05-07T05:28:02.012Z,66.50
2019-05-07T05:30:33.372Z,66.10
2019-05-07T05:33:02.140Z,65.10
2019-05-07T05:35:28.893Z,65.70
2019-05-07T05:37:55.687Z,66.10
2019-05-07T05:40:22.751Z,68.70
2019-05-07T05:42:52.452Z,70.90
2019-05-07T05:45:42.445Z,72.70
2019-05-07T05:48:08.936Z,73.20
2019-05-07T05:50:43.374Z,71.90
2019-05-07T05:53:29.181Z,72.50
2019-05-07T05:55:59.366Z,73.50
2019-05-07T05:58:28.159Z,72.90
2019-05-07T06:01:03.087Z,72.50
2019-05-07T06:03:32.734Z,74.40
2019-05-07T06:06:01.988Z,75.20
2019-05-07T06:08:34.828Z,75.20
2019-05-07T06:11:12.064Z,75.40
2019-05-07T06:13:46.577Z,75.60
2019-05-07T06:16:22.054Z,75.20
2019-05-07T06:18:52.571Z,75.40
2019-05-07T06:21:37.865Z,74.80
2019-05-07T06:24:12.941Z,74.20
2019-05-07T06:26:42.464Z,75.00
2019-05-07T06:29:09.209Z,75.00
2019-05-07T06:31:36.224Z,73.90
2019-05-07T06:34:03.614Z,74.50
2019-05-07T06:36:32.903Z,74.90
2019-05-07T06:39:02.013Z,75.00
2019-05-07T06:41:48.548Z,74.70
2019-05-07T06:44:22.225Z,76.00
2019-05-07T06:46:48.659Z,77.20
2019-05-07T06:49:15.789Z,77.20
2019-05-07T06:51:42.693Z,77.70
2019-05-07T06:54:09.622Z,78.40
2019-05-07T06:56:36.425Z,78.30
2019-05-07T06:59:05.231Z,77.50
2019-05-07T07:01:36.855Z,77.30
2019-05-07T07:04:05.772Z,76.70
2019-05-07T07:06:34.907Z,77.40
2019-05-07T07:09:12.644Z,76.90
2019-05-07T07:11:44.526Z,75.70
2019-05-07T07:14:11.961Z,75.70
2019-05-07T07:16:38.999Z,74.70
2019-05-07T07:19:06.511Z,73.80
2019-05-07T07:21:33.476Z,74.60
2019-05-07T07:24:00.377Z,73.90
2019-05-07T07:26:27.257Z,74.40
2019-05-07T07:28:54.375Z,73.10
2019-05-07T07:31:22.638Z,73.60
2019-05-07T07:33:52.618Z,73.20
2019-05-07T07:36:22.573Z,71.10
2019-05-07T07:38:49.445Z,72.40
2019-05-07T07:41:22.334Z,72.80
2019-05-07T07:43:49.189Z,72.30
2019-05-07T07:46:16.721Z,72.40
2019-05-07T07:48:44.125Z,72.10
2019-05-07T07:51:11.574Z,72.10
2019-05-07T07:53:39.621Z,71.40
2019-05-07T07:56:23.072Z,72.00
2019-05-07T07:58:52.479Z,71.70
2019-05-07T08:01:24.138Z,71.20
2019-05-07T08:03:52.257Z,71.40
2019-05-07T08:06:19.317Z,70.40
2019-05-07T08:08:46.390Z,70.20
2019-05-07T08:11:13.159Z,70.60
2019-05-07T08:13:42.359Z,69.60
2019-05-07T08:16:09.000Z,70.30
2019-05-07T08:18:36.319Z,69.30
2019-05-07T08:21:03.141Z,68.90
2019-05-07T08:23:31.977Z,67.70
2019-05-07T08:25:58.848Z,67.50
2019-05-07T08:28:25.684Z,67.30
2019-05-07T08:30:57.094Z,66.20
2019-05-07T08:33:25.690Z,67.00
2019-05-07T08:36:09.254Z,66.30
2019-05-07T08:38:52.448Z,66.90
2019-05-07T08:41:22.501Z,67.90
2019-05-07T08:43:51.851Z,66.90
2019-05-07T08:46:36.892Z,66.80
2019-05-07T08:49:05.330Z,66.30
2019-05-07T08:51:32.690Z,65.30
2019-05-07T08:54:05.829Z,65.10
2019-05-07T08:56:35.483Z,66.20
2019-05-07T08:59:06.349Z,65.60
2019-05-07T09:01:35.935Z,65.30
2019-05-07T09:04:03.722Z,64.80
2019-05-07T09:06:33.362Z,66.30
2019-05-07T09:09:05.297Z,66.10
2019-05-07T09:11:32.157Z,65.20
2019-05-07T09:13:59.177Z,65.60
2019-05-07T09:16:25.987Z,64.80
2019-05-07T09:18:52.823Z,64.90
2019-05-07T09:21:19.738Z,64.70
2019-05-07T09:23:46.767Z,64.60
2019-05-07T09:26:15.371Z,62.10
2019-05-07T09:28:46.943Z,62.70
2019-05-07T09:31:19.046Z,62.90
2019-05-07T09:33:47.646Z,62.90
2019-05-07T09:36:16.219Z,63.50
2019-05-07T09:38:56.118Z,63.50
2019-05-07T09:41:13.674Z,63.70
2019-05-07T09:43:42.359Z,64.10
2019-05-07T09:46:09.178Z,63.50
2019-05-07T09:48:36.143Z,63.80
2019-05-07T09:51:02.916Z,64.20
2019-05-07T09:53:29.731Z,64.80
2019-05-07T09:55:56.792Z,65.50
2019-05-07T09:58:35.639Z,64.80
2019-05-07T10:00:52.886Z,64.90
2019-05-07T10:03:19.677Z,64.40
2019-05-07T10:05:46.498Z,64.60
2019-05-07T10:08:13.487Z,64.30
2019-05-07T10:10:41.715Z,64.30
2019-05-07T10:13:13.320Z,63.70
2019-05-07T10:15:41.830Z,63.40
2019-05-07T10:18:12.418Z,63.80
2019-05-07T10:20:41.978Z,62.30
2019-05-07T10:23:11.652Z,62.50
2019-05-07T10:25:39.529Z,62.80
2019-05-07T10:28:07.519Z,62.60
2019-05-07T10:30:35.434Z,63.20
2019-05-07T10:33:02.525Z,63.60
2019-05-07T10:35:31.152Z,64.20
2019-05-07T10:37:58.269Z,63.60
2019-05-07T10:40:26.026Z,64.00
2019-05-07T10:42:52.836Z,64.20
2019-05-07T10:45:36.671Z,63.70
2019-05-07T10:48:18.687Z,63.40
2019-05-07T10:50:51.659Z,63.40
2019-05-07T10:53:18.532Z,62.90
2019-05-07T10:55:45.658Z,62.00
2019-05-07T10:58:12.681Z,63.00
2019-05-07T11:00:41.969Z,62.80
2019-05-07T11:03:08.575Z,62.10
2019-05-07T11:05:35.388Z,62.80
2019-05-07T11:08:02.644Z,63.40
2019-05-07T11:10:29.601Z,63.70
2019-05-07T11:12:57.025Z,63.70
2019-05-07T11:15:23.817Z,63.70
2019-05-07T11:18:02.735Z,62.90
2019-05-07T11:20:31.918Z,61.80
2019-05-07T11:22:58.692Z,62.50
2019-05-07T11:25:25.814Z,62.50
2019-05-07T11:27:52.961Z,61.70
2019-05-07T11:30:22.842Z,58.60
2019-05-07T11:32:49.677Z,59.90
2019-05-07T11:35:16.478Z,60.70
2019-05-07T11:37:44.312Z,60.80
2019-05-07T11:40:13.495Z,59.50
2019-05-07T11:42:58.871Z,59.20
2019-05-07T11:45:33.283Z,57.10
2019-05-07T11:48:01.913Z,56.80
2019-05-07T11:50:39.692Z,55.10
2019-05-07T11:53:06.669Z,56.30
2019-05-07T11:55:33.460Z,56.00
2019-05-07T11:58:02.277Z,55.80
2019-05-07T12:00:32.346Z,55.90
2019-05-07T12:02:59.626Z,54.80
2019-05-07T12:05:26.489Z,54.20
2019-05-07T12:07:53.267Z,54.60
2019-05-07T12:10:22.176Z,54.10
2019-05-07T12:12:49.135Z,53.90
2019-05-07T12:15:16.840Z,53.90
2019-05-07T12:17:43.673Z,53.50
2019-05-07T12:20:13.493Z,52.70
2019-05-07T12:22:46.940Z,52.30
2019-05-07T12:25:18.556Z,52.60
2019-05-07T12:27:48.451Z,52.10
2019-05-07T12:30:35.498Z,52.00
2019-05-07T12:33:02.401Z,52.60
2019-05-07T12:35:29.586Z,53.80
2019-05-07T12:37:56.862Z,53.20
2019-05-07T12:40:23.679Z,52.70
2019-05-07T12:42:52.397Z,52.70
2019-05-07T12:45:19.389Z,52.00
2019-05-07T12:47:46.078Z,52.10
2019-05-07T12:50:14.052Z,52.10
2019-05-07T12:52:42.661Z,52.30
2019-05-07T12:55:11.997Z,51.90
2019-05-07T12:57:39.086Z,51.70
2019-05-07T13:00:28.834Z,52.00
2019-05-07T13:02:57.419Z,51.80
2019-05-07T13:05:24.111Z,51.70
2019-05-07T13:07:51.882Z,51.90
2019-05-07T13:10:18.778Z,51.50
2019-05-07T13:12:45.595Z,51.20
2019-05-07T13:15:23.927Z,51.20
2019-05-07T13:17:41.794Z,51.80
2019-05-07T13:20:09.370Z,51.60
2019-05-07T13:22:36.177Z,52.30
2019-05-07T13:25:05.497Z,52.30
2019-05-07T13:27:32.516Z,52.50
2019-05-07T13:30:02.371Z,52.90
2019-05-07T13:32:32.010Z,52.80
2019-05-07T13:35:02.573Z,53.00
2019-05-07T13:37:32.508Z,52.60
2019-05-07T13:40:05.845Z,53.10
2019-05-07T13:42:55.046Z,53.40
2019-05-07T13:45:39.424Z,52.20
2019-05-07T13:48:12.143Z,52.00
2019-05-07T13:50:39.423Z,52.30
2019-05-07T13:53:06.500Z,52.30
2019-05-07T13:55:34.210Z,51.80
2019-05-07T13:58:01.031Z,52.20
2019-05-07T14:00:29.988Z,51.80
2019-05-07T14:02:57.100Z,51.00
2019-05-07T14:05:23.980Z,51.00
2019-05-07T14:07:50.667Z,50.90
2019-05-07T14:10:17.882Z,51.40
2019-05-07T14:12:44.662Z,51.10
2019-05-07T14:15:12.649Z,50.40
2019-05-07T14:17:40.238Z,50.60
2019-05-07T14:20:07.954Z,50.40
2019-05-07T14:22:34.939Z,49.90
2019-05-07T14:25:02.108Z,49.40
2019-05-07T14:27:28.791Z,49.70
2019-05-07T14:29:55.587Z,49.10
2019-05-07T14:32:26.976Z,49.00
2019-05-07T14:35:12.883Z,48.80
2019-05-07T14:37:44.273Z,48.80
2019-05-07T14:40:12.928Z,49.50
2019-05-07T14:42:53.782Z,48.90
2019-05-07T14:45:23.579Z,48.60
2019-05-07T14:47:52.111Z,48.10
2019-05-07T14:50:19.043Z,48.20
2019-05-07T14:52:45.962Z,48.10
2019-05-07T14:55:13.240Z,48.40
2019-05-07T14:57:41.921Z,48.60
2019-05-07T15:00:12.032Z,47.90
2019-05-07T15:02:39.121Z,48.10
2019-05-07T15:05:06.910Z,48.80
2019-05-07T15:07:33.915Z,48.80
2019-05-07T15:10:02.371Z,48.50
2019-05-07T15:12:29.442Z,47.40
2019-05-07T15:14:56.338Z,48.10
2019-05-07T15:17:27.943Z,47.80
2019-05-07T15:19:55.226Z,48.10
2019-05-07T15:22:23.823Z,48.80
2019-05-07T15:24:52.427Z,48.70
2019-05-07T15:27:19.751Z,48.00
2019-05-07T15:29:46.453Z,48.50
2019-05-07T15:32:13.801Z,46.60
2019-05-07T15:34:42.098Z,46.50
2019-05-07T15:37:09.303Z,46.30
2019-05-07T15:39:37.360Z,46.20
2019-05-07T15:42:04.088Z,46.70
2019-05-07T15:44:30.861Z,46.20
2019-05-07T15:46:59.438Z,46.50
2019-05-07T15:49:26.275Z,46.30
2019-05-07T15:51:55.383Z,46.80
2019-05-07T15:54:22.096Z,45.90
2019-05-07T15:56:54.126Z,46.90
2019-05-07T15:59:22.379Z,46.90
2019-05-07T16:01:52.178Z,46.50
2019-05-07T16:04:25.163Z,46.60
2019-05-07T16:06:48.236Z,47.10
2019-05-07T16:09:15.813Z,46.50
2019-05-07T16:11:43.173Z,46.60
2019-05-07T16:14:14.947Z,47.50
2019-05-07T16:16:46.554Z,47.40
2019-05-07T16:19:15.145Z,47.10
2019-05-07T16:21:42.533Z,47.30
2019-05-07T16:24:09.505Z,48.00
2019-05-07T16:26:36.173Z,47.60
2019-05-07T16:29:04.628Z,47.70
2019-05-07T16:31:33.252Z,47.70
2019-05-07T16:34:02.406Z,48.00
2019-05-07T16:36:29.022Z,48.80
2019-05-07T16:38:55.915Z,48.80
2019-05-07T16:41:22.709Z,48.50
2019-05-07T16:43:49.811Z,49.10
2019-05-07T16:46:17.667Z,49.60
2019-05-07T16:48:44.758Z,49.50
2019-05-07T16:51:12.772Z,49.80
2019-05-07T16:53:42.155Z,50.60
2019-05-07T16:56:08.969Z,50.40
2019-05-07T16:58:46.649Z,50.30
2019-05-07T17:01:15.274Z,50.70
2019-05-07T17:03:43.968Z,51.80
2019-05-07T17:06:12.471Z,50.60
2019-05-07T17:08:53.425Z,51.10
2019-05-07T17:11:20.106Z,51.80
2019-05-07T17:13:46.896Z,52.50
2019-05-07T17:16:13.716Z,53.00
2019-05-07T17:18:40.563Z,52.60
2019-05-07T17:21:07.346Z,53.90
2019-05-07T17:23:43.944Z,54.90
2019-05-07T17:26:04.994Z,55.70
2019-05-07T17:28:32.089Z,56.90
2019-05-07T17:30:58.934Z,57.20
2019-05-07T17:33:25.720Z,57.00
2019-05-07T17:35:52.911Z,57.50
2019-05-07T17:38:19.920Z,57.50
2019-05-07T17:40:46.973Z,57.70
2019-05-07T17:43:14.134Z,58.40
2019-05-07T17:45:42.810Z,58.70
2019-05-07T17:48:09.638Z,59.00
2019-05-07T17:50:42.727Z,59.10
2019-05-07T17:53:11.831Z,60.30
2019-05-07T17:55:39.031Z,60.60
2019-05-07T17:58:06.026Z,61.00
2019-05-07T18:00:32.973Z,61.60
2019-05-07T18:03:18.768Z,61.40
2019-05-07T18:05:45.642Z,61.90
2019-05-07T18:08:12.763Z,62.00
2019-05-07T18:10:39.825Z,62.80
2019-05-07T18:13:08.142Z,62.90
2019-05-07T18:15:35.106Z,63.30
2019-05-07T18:18:12.790Z,63.40
2019-05-07T18:20:42.072Z,63.60
2019-05-07T18:23:13.338Z,64.10
2019-05-07T18:25:37.811Z,64.50
2019-05-07T18:28:04.607Z,64.60
2019-05-07T18:30:32.712Z,65.00
2019-05-07T18:33:02.440Z,64.80
2019-05-07T18:35:29.568Z,65.30
2019-05-07T18:37:56.375Z,65.20
2019-05-07T18:40:23.187Z,65.20
2019-05-07T18:42:52.407Z,65.60
2019-05-07T18:45:21.640Z,65.30
2019-05-07T18:47:48.135Z,65.10
2019-05-07T18:50:15.085Z,65.40
2019-05-07T18:52:42.454Z,65.50
2019-05-07T18:55:11.995Z,65.60
2019-05-07T18:57:39.536Z,66.20
2019-05-07T19:00:16.196Z,66.30
2019-05-07T19:02:43.466Z,66.20
2019-05-07T19:05:10.420Z,66.00
2019-05-07T19:07:37.246Z,66.30
2019-05-07T19:10:05.372Z,66.20
2019-05-07T19:12:34.390Z,66.60
2019-05-07T19:15:02.926Z,66.60
2019-05-07T19:17:32.144Z,67.00
2019-05-07T19:19:59.458Z,67.10
2019-05-07T19:22:26.622Z,67.10
2019-05-07T19:24:53.771Z,67.30
2019-05-07T19:27:22.023Z,67.90
2019-05-07T19:29:49.078Z,68.10
2019-05-07T19:32:16.670Z,68.00
2019-05-07T19:34:43.655Z,68.30
2019-05-07T19:37:10.937Z,68.90
2019-05-07T19:39:37.822Z,69.40
2019-05-07T19:42:05.020Z,69.50
2019-05-07T19:44:32.028Z,69.40
2019-05-07T19:46:58.937Z,69.60
2019-05-07T19:49:25.761Z,69.80
2019-05-07T19:51:52.879Z,69.90
2019-05-07T19:54:19.759Z,70.20
2019-05-07T19:56:46.559Z,70.30
2019-05-07T19:59:13.709Z,70.10
2019-05-07T20:01:42.665Z,70.60
2019-05-07T20:04:09.974Z,70.80
2019-05-07T20:06:36.789Z,71.00
2019-05-07T20:09:12.079Z,71.30
2019-05-07T20:11:39.007Z,71.60
2019-05-07T20:14:05.872Z,72.00
2019-05-07T20:16:33.242Z,72.40
2019-05-07T20:19:00.564Z,72.50
2019-05-07T20:21:27.613Z,72.50
2019-05-07T20:23:54.395Z,72.70
2019-05-07T20:26:23.076Z,73.00
2019-05-07T20:28:52.553Z,73.20
2019-05-07T20:31:19.269Z,73.70
2019-05-07T20:33:46.578Z,73.90
2019-05-07T20:36:13.612Z,73.70
2019-05-07T20:38:42.526Z,73.70
2019-05-07T20:41:09.641Z,74.30
2019-05-07T20:43:36.756Z,74.10
2019-05-07T20:46:03.755Z,74.20
2019-05-07T20:48:32.460Z,74.20
2019-05-07T20:50:59.870Z,74.30
2019-05-07T20:53:45.640Z,74.20
2019-05-07T20:56:14.087Z,74.70
2019-05-07T20:58:41.489Z,75.00
2019-05-07T21:01:08.900Z,75.30
2019-05-07T21:03:36.222Z,75.30
2019-05-07T21:06:03.024Z,76.00
2019-05-07T21:08:32.094Z,76.10
2019-05-07T21:10:59.147Z,76.10
2019-05-07T21:13:31.403Z,76.10
2019-05-07T21:15:54.663Z,75.70
2019-05-07T21:18:23.335Z,75.90
2019-05-07T21:20:50.222Z,76.30
2019-05-07T21:23:17.272Z,76.90
2019-05-07T21:25:46.025Z,76.60
2019-05-07T21:28:13.031Z,76.50
2019-05-07T21:30:39.909Z,76.70
2019-05-07T21:33:08.508Z,76.90
2019-05-07T21:35:35.584Z,77.10
2019-05-07T21:38:02.435Z,77.10
2019-05-07T21:40:29.490Z,77.20
2019-05-07T21:42:56.324Z,77.60
2019-05-07T21:45:23.862Z,78.40
2019-05-07T21:47:52.102Z,78.80
2019-05-07T21:50:21.792Z,79.40
2019-05-07T21:52:55.978Z,79.90
2019-05-07T21:55:24.550Z,80.10
2019-05-07T21:58:03.087Z,81.00
2019-05-07T22:00:32.609Z,81.50
2019-05-07T22:03:01.978Z,81.90
2019-05-07T22:05:29.190Z,82.30
2019-05-07T22:07:56.043Z,82.60
2019-05-07T22:10:22.737Z,83.10
2019-05-07T22:12:49.723Z,83.10
2019-05-07T22:15:16.763Z,83.10
2019-05-07T22:17:44.383Z,83.30
2019-05-07T22:20:11.969Z,83.40
2019-05-07T22:22:39.035Z,83.80
2019-05-07T22:25:06.345Z,84.30
2019-05-07T22:27:33.096Z,84.50
2019-05-07T22:30:02.150Z,85.00
2019-05-07T22:32:30.515Z,85.10
2019-05-07T22:35:04.785Z,85.60
2019-05-07T22:37:32.427Z,85.90
2019-05-07T22:39:59.618Z,86.30
2019-05-07T22:42:26.816Z,86.60
2019-05-07T22:44:53.500Z,86.80
2019-05-07T22:47:22.649Z,86.50
2019-05-07T22:49:49.852Z,86.60
2019-05-07T22:52:17.244Z,87.00
2019-05-07T22:54:44.031Z,86.90
2019-05-07T22:57:14.203Z,87.00
2019-05-07T22:59:43.315Z,86.90
2019-05-07T23:02:12.186Z,87.10
2019-05-07T23:04:39.271Z,87.20
2019-05-07T23:07:05.994Z,87.10
2019-05-07T23:09:32.911Z,87.40
2019-05-07T23:12:01.758Z,87.50
2019-05-07T23:14:28.898Z,87.90
2019-05-07T23:16:55.951Z,87.90
2019-05-07T23:19:22.761Z,88.10
2019-05-07T23:21:51.917Z,88.00
2019-05-07T23:24:18.576Z,88.30
2019-05-07T23:26:49.889Z,88.30
2019-05-07T23:29:14.407Z,88.90
2019-05-07T23:31:41.404Z,89.00
2019-05-07T23:34:08.076Z,89.50
2019-05-07T23:36:34.868Z,89.60
2019-05-07T23:39:02.572Z,90.00
2019-05-07T23:41:43.593Z,90.10
2019-05-07T23:44:12.721Z,90.50
2019-05-07T23:46:44.390Z,90.40
2019-05-07T23:49:09.150Z,90.80
2019-05-07T23:51:36.323Z,90.80
2019-05-07T23:54:03.890Z,91.10
2019-05-07T23:56:32.925Z,91.30
2019-05-07T23:58:59.882Z,91.50
